sensor_id;sensor_type;location;lat;lon;timestamp;temperature;humidity
66928;DHT22;59882;45.624;11.698;2023-03-01T00:00:28;6.60;51.60
66928;DHT22;59882;45.624;11.698;2023-03-01T00:02:53;6.50;52.00
66928;DHT22;59882;45.624;11.698;2023-03-01T00:05:19;6.50;51.80
66928;DHT22;59882;45.624;11.698;2023-03-01T00:07:44;6.40;52.30
66928;DHT22;59882;45.624;11.698;2023-03-01T00:10:10;6.30;52.60
66928;DHT22;59882;45.624;11.698;2023-03-01T00:12:36;6.20;52.90
66928;DHT22;59882;45.624;11.698;2023-03-01T00:15:02;6.10;52.70
66928;DHT22;59882;45.624;11.698;2023-03-01T00:17:30;6.10;53.20
66928;DHT22;59882;45.624;11.698;2023-03-01T00:19:55;6.00;53.40
66928;DHT22;59882;45.624;11.698;2023-03-01T00:22:21;6.00;52.60
66928;DHT22;59882;45.624;11.698;2023-03-01T00:24:46;6.00;52.80
66928;DHT22;59882;45.624;11.698;2023-03-01T00:27:12;5.90;53.40
66928;DHT22;59882;45.624;11.698;2023-03-01T00:29:38;5.90;53.20
66928;DHT22;59882;45.624;11.698;2023-03-01T00:32:03;5.90;52.80
66928;DHT22;59882;45.624;11.698;2023-03-01T00:34:29;6.00;52.80
66928;DHT22;59882;45.624;11.698;2023-03-01T00:36:55;6.00;52.70
66928;DHT22;59882;45.624;11.698;2023-03-01T00:39:21;6.00;52.80
66928;DHT22;59882;45.624;11.698;2023-03-01T00:41:46;6.10;52.90
66928;DHT22;59882;45.624;11.698;2023-03-01T00:44:12;6.10;52.80
66928;DHT22;59882;45.624;11.698;2023-03-01T00:46:38;6.10;52.80
66928;DHT22;59882;45.624;11.698;2023-03-01T00:49:03;6.10;53.00
66928;DHT22;59882;45.624;11.698;2023-03-01T00:51:30;6.00;53.00
66928;DHT22;59882;45.624;11.698;2023-03-01T00:53:59;6.00;53.00
66928;DHT22;59882;45.624;11.698;2023-03-01T00:56:25;5.90;53.10
66928;DHT22;59882;45.624;11.698;2023-03-01T00:58:50;5.90;53.20
66928;DHT22;59882;45.624;11.698;2023-03-01T01:01:19;5.80;53.00
66928;DHT22;59882;45.624;11.698;2023-03-01T01:03:49;5.80;53.70
66928;DHT22;59882;45.624;11.698;2023-03-01T01:06:38;5.80;53.00
66928;DHT22;59882;45.624;11.698;2023-03-01T01:09:04;5.70;53.00
66928;DHT22;59882;45.624;11.698;2023-03-01T01:11:31;5.70;53.00
66928;DHT22;59882;45.624;11.698;2023-03-01T01:13:57;5.70;53.10
66928;DHT22;59882;45.624;11.698;2023-03-01T01:16:25;5.70;53.20
66928;DHT22;59882;45.624;11.698;2023-03-01T01:18:51;5.70;53.50
66928;DHT22;59882;45.624;11.698;2023-03-01T01:21:19;5.60;53.20
66928;DHT22;59882;45.624;11.698;2023-03-01T01:23:46;5.60;53.20
66928;DHT22;59882;45.624;11.698;2023-03-01T01:26:20;5.60;53.40
66928;DHT22;59882;45.624;11.698;2023-03-01T01:28:47;5.60;53.50
66928;DHT22;59882;45.624;11.698;2023-03-01T01:31:13;5.50;54.10
66928;DHT22;59882;45.624;11.698;2023-03-01T01:33:39;5.50;54.20
66928;DHT22;59882;45.624;11.698;2023-03-01T01:36:06;5.40;54.30
66928;DHT22;59882;45.624;11.698;2023-03-01T01:38:32;5.30;54.50
66928;DHT22;59882;45.624;11.698;2023-03-01T01:40:57;5.30;54.90
66928;DHT22;59882;45.624;11.698;2023-03-01T01:43:29;5.20;55.30
66928;DHT22;59882;45.624;11.698;2023-03-01T01:49:33;5.10;54.80
66928;DHT22;59882;45.624;11.698;2023-03-01T01:55:18;5.00;56.30
66928;DHT22;59882;45.624;11.698;2023-03-01T01:57:41;4.90;56.50
66928;DHT22;59882;45.624;11.698;2023-03-01T02:00:17;4.80;56.70
66928;DHT22;59882;45.624;11.698;2023-03-01T02:02:45;4.70;57.10
66928;DHT22;59882;45.624;11.698;2023-03-01T02:08:00;4.60;56.90
66928;DHT22;59882;45.624;11.698;2023-03-01T02:10:27;4.60;57.60
66928;DHT22;59882;45.624;11.698;2023-03-01T02:12:54;4.60;57.00
66928;DHT22;59882;45.624;11.698;2023-03-01T02:15:22;4.60;56.70
66928;DHT22;59882;45.624;11.698;2023-03-01T02:17:48;4.60;57.40
66928;DHT22;59882;45.624;11.698;2023-03-01T02:22:48;4.70;57.80
66928;DHT22;59882;45.624;11.698;2023-03-01T02:30:21;4.60;58.00
66928;DHT22;59882;45.624;11.698;2023-03-01T02:32:48;4.60;57.60
66928;DHT22;59882;45.624;11.698;2023-03-01T02:35:16;4.60;57.90
66928;DHT22;59882;45.624;11.698;2023-03-01T02:37:43;4.60;57.80
66928;DHT22;59882;45.624;11.698;2023-03-01T02:40:12;4.70;57.30
66928;DHT22;59882;45.624;11.698;2023-03-01T02:42:53;4.70;57.90
66928;DHT22;59882;45.624;11.698;2023-03-01T02:45:19;4.70;57.90
66928;DHT22;59882;45.624;11.698;2023-03-01T02:47:44;4.70;57.40
66928;DHT22;59882;45.624;11.698;2023-03-01T02:53:11;4.80;57.70
66928;DHT22;59882;45.624;11.698;2023-03-01T02:55:38;4.80;57.30
66928;DHT22;59882;45.624;11.698;2023-03-01T02:58:04;4.80;57.50
66928;DHT22;59882;45.624;11.698;2023-03-01T03:00:34;4.80;57.40
66928;DHT22;59882;45.624;11.698;2023-03-01T03:03:01;4.90;57.60
66928;DHT22;59882;45.624;11.698;2023-03-01T03:05:29;4.90;57.20
66928;DHT22;59882;45.624;11.698;2023-03-01T03:07:55;4.90;57.20
66928;DHT22;59882;45.624;11.698;2023-03-01T03:10:24;5.00;57.10
66928;DHT22;59882;45.624;11.698;2023-03-01T03:12:55;5.10;57.50
66928;DHT22;59882;45.624;11.698;2023-03-01T03:15:21;5.10;56.90
66928;DHT22;59882;45.624;11.698;2023-03-01T03:17:48;5.20;57.20
66928;DHT22;59882;45.624;11.698;2023-03-01T03:20:16;5.20;57.50
66928;DHT22;59882;45.624;11.698;2023-03-01T03:22:46;5.30;57.20
66928;DHT22;59882;45.624;11.698;2023-03-01T03:25:12;5.30;57.30
66928;DHT22;59882;45.624;11.698;2023-03-01T03:27:39;5.30;57.00
66928;DHT22;59882;45.624;11.698;2023-03-01T03:30:07;5.30;56.80
66928;DHT22;59882;45.624;11.698;2023-03-01T03:32:38;5.30;57.20
66928;DHT22;59882;45.624;11.698;2023-03-01T03:35:06;5.30;57.20
66928;DHT22;59882;45.624;11.698;2023-03-01T03:37:39;5.30;57.10
66928;DHT22;59882;45.624;11.698;2023-03-01T03:40:24;5.40;57.20
66928;DHT22;59882;45.624;11.698;2023-03-01T03:42:50;5.40;57.60
66928;DHT22;59882;45.624;11.698;2023-03-01T03:45:16;5.30;58.20
66928;DHT22;59882;45.624;11.698;2023-03-01T03:47:42;5.30;58.30
66928;DHT22;59882;45.624;11.698;2023-03-01T03:50:10;5.20;58.40
66928;DHT22;59882;45.624;11.698;2023-03-01T03:52:35;5.20;58.60
66928;DHT22;59882;45.624;11.698;2023-03-01T03:55:01;5.10;58.70
66928;DHT22;59882;45.624;11.698;2023-03-01T03:57:27;5.10;58.80
66928;DHT22;59882;45.624;11.698;2023-03-01T03:59:52;5.00;58.50
66928;DHT22;59882;45.624;11.698;2023-03-01T04:02:18;5.00;58.90
66928;DHT22;59882;45.624;11.698;2023-03-01T04:04:50;4.90;58.90
66928;DHT22;59882;45.624;11.698;2023-03-01T04:07:17;4.90;58.80
66928;DHT22;59882;45.624;11.698;2023-03-01T04:09:43;4.90;58.80
66928;DHT22;59882;45.624;11.698;2023-03-01T04:12:09;4.80;58.80
66928;DHT22;59882;45.624;11.698;2023-03-01T04:14:36;4.80;59.10
66928;DHT22;59882;45.624;11.698;2023-03-01T04:17:02;4.80;59.10
66928;DHT22;59882;45.624;11.698;2023-03-01T04:19:33;4.70;59.30
66928;DHT22;59882;45.624;11.698;2023-03-01T04:22:02;4.70;59.50
66928;DHT22;59882;45.624;11.698;2023-03-01T04:24:35;4.70;59.50
66928;DHT22;59882;45.624;11.698;2023-03-01T04:27:01;4.70;59.70
66928;DHT22;59882;45.624;11.698;2023-03-01T04:29:27;4.70;59.50
66928;DHT22;59882;45.624;11.698;2023-03-01T04:31:52;4.60;59.70
66928;DHT22;59882;45.624;11.698;2023-03-01T04:34:18;4.60;59.80
66928;DHT22;59882;45.624;11.698;2023-03-01T04:36:44;4.60;60.20
66928;DHT22;59882;45.624;11.698;2023-03-01T04:39:09;4.60;60.20
66928;DHT22;59882;45.624;11.698;2023-03-01T04:41:39;4.60;60.40
66928;DHT22;59882;45.624;11.698;2023-03-01T04:44:06;4.50;60.70
66928;DHT22;59882;45.624;11.698;2023-03-01T04:46:31;4.50;60.70
66928;DHT22;59882;45.624;11.698;2023-03-01T04:48:57;4.50;60.50
66928;DHT22;59882;45.624;11.698;2023-03-01T04:51:22;4.50;59.80
66928;DHT22;59882;45.624;11.698;2023-03-01T04:53:48;4.50;60.10
66928;DHT22;59882;45.624;11.698;2023-03-01T04:56:14;4.60;60.30
66928;DHT22;59882;45.624;11.698;2023-03-01T04:58:40;4.70;60.10
66928;DHT22;59882;45.624;11.698;2023-03-01T05:01:24;4.70;59.80
66928;DHT22;59882;45.624;11.698;2023-03-01T05:03:51;4.80;60.10
66928;DHT22;59882;45.624;11.698;2023-03-01T05:06:18;4.80;59.50
66928;DHT22;59882;45.624;11.698;2023-03-01T05:08:44;4.80;59.90
66928;DHT22;59882;45.624;11.698;2023-03-01T05:11:10;4.80;59.50
66928;DHT22;59882;45.624;11.698;2023-03-01T05:13:37;4.80;59.20
66928;DHT22;59882;45.624;11.698;2023-03-01T05:16:05;4.90;59.20
66928;DHT22;59882;45.624;11.698;2023-03-01T05:18:33;4.90;59.20
66928;DHT22;59882;45.624;11.698;2023-03-01T05:21:07;5.00;59.10
66928;DHT22;59882;45.624;11.698;2023-03-01T05:23:34;5.00;59.20
66928;DHT22;59882;45.624;11.698;2023-03-01T05:26:05;5.00;59.40
66928;DHT22;59882;45.624;11.698;2023-03-01T05:28:31;5.00;59.50
66928;DHT22;59882;45.624;11.698;2023-03-01T05:30:57;4.90;59.40
66928;DHT22;59882;45.624;11.698;2023-03-01T05:33:23;4.90;59.10
66928;DHT22;59882;45.624;11.698;2023-03-01T05:35:49;5.00;59.00
66928;DHT22;59882;45.624;11.698;2023-03-01T05:38:16;5.00;58.90
66928;DHT22;59882;45.624;11.698;2023-03-01T05:40:43;5.00;58.80
66928;DHT22;59882;45.624;11.698;2023-03-01T05:43:09;5.00;59.40
66928;DHT22;59882;45.624;11.698;2023-03-01T05:45:37;5.10;59.20
66928;DHT22;59882;45.624;11.698;2023-03-01T05:48:04;5.00;59.30
66928;DHT22;59882;45.624;11.698;2023-03-01T05:50:33;5.00;59.40
66928;DHT22;59882;45.624;11.698;2023-03-01T05:53:09;4.90;59.80
66928;DHT22;59882;45.624;11.698;2023-03-01T05:55:35;4.90;60.00
66928;DHT22;59882;45.624;11.698;2023-03-01T05:58:04;4.90;60.30
66928;DHT22;59882;45.624;11.698;2023-03-01T06:00:30;4.80;59.90
66928;DHT22;59882;45.624;11.698;2023-03-01T06:02:56;4.90;59.70
66928;DHT22;59882;45.624;11.698;2023-03-01T06:05:22;4.90;60.00
66928;DHT22;59882;45.624;11.698;2023-03-01T06:07:48;4.90;59.90
66928;DHT22;59882;45.624;11.698;2023-03-01T06:10:15;5.00;59.70
66928;DHT22;59882;45.624;11.698;2023-03-01T06:12:42;5.00;60.00
66928;DHT22;59882;45.624;11.698;2023-03-01T06:15:10;5.00;59.50
66928;DHT22;59882;45.624;11.698;2023-03-01T06:17:38;5.10;59.30
66928;DHT22;59882;45.624;11.698;2023-03-01T06:20:05;5.10;59.60
66928;DHT22;59882;45.624;11.698;2023-03-01T06:22:31;5.20;59.50
66928;DHT22;59882;45.624;11.698;2023-03-01T06:24:56;5.20;59.50
66928;DHT22;59882;45.624;11.698;2023-03-01T06:27:22;5.20;59.60
66928;DHT22;59882;45.624;11.698;2023-03-01T06:29:48;5.30;59.40
66928;DHT22;59882;45.624;11.698;2023-03-01T06:32:14;5.30;59.60
66928;DHT22;59882;45.624;11.698;2023-03-01T06:34:39;5.30;59.40
66928;DHT22;59882;45.624;11.698;2023-03-01T06:37:06;5.30;59.00
66928;DHT22;59882;45.624;11.698;2023-03-01T06:39:32;5.40;58.80
66928;DHT22;59882;45.624;11.698;2023-03-01T06:41:58;5.40;58.90
66928;DHT22;59882;45.624;11.698;2023-03-01T06:44:24;5.50;58.60
66928;DHT22;59882;45.624;11.698;2023-03-01T06:46:50;5.60;58.50
66928;DHT22;59882;45.624;11.698;2023-03-01T06:49:15;5.60;57.90
66928;DHT22;59882;45.624;11.698;2023-03-01T06:51:43;5.70;58.00
66928;DHT22;59882;45.624;11.698;2023-03-01T06:54:09;5.70;58.60
66928;DHT22;59882;45.624;11.698;2023-03-01T06:56:35;5.80;58.30
66928;DHT22;59882;45.624;11.698;2023-03-01T06:59:00;5.80;58.40
66928;DHT22;59882;45.624;11.698;2023-03-01T07:01:28;5.90;58.00
66928;DHT22;59882;45.624;11.698;2023-03-01T07:03:54;6.00;57.20
66928;DHT22;59882;45.624;11.698;2023-03-01T07:06:20;6.10;57.40
66928;DHT22;59882;45.624;11.698;2023-03-01T07:08:46;6.10;57.60
66928;DHT22;59882;45.624;11.698;2023-03-01T07:11:12;6.20;57.40
66928;DHT22;59882;45.624;11.698;2023-03-01T07:13:38;6.20;57.10
66928;DHT22;59882;45.624;11.698;2023-03-01T07:16:04;6.30;57.20
66928;DHT22;59882;45.624;11.698;2023-03-01T07:18:29;6.30;56.90
66928;DHT22;59882;45.624;11.698;2023-03-01T07:20:55;6.30;56.90
66928;DHT22;59882;45.624;11.698;2023-03-01T07:23:21;6.40;57.00
66928;DHT22;59882;45.624;11.698;2023-03-01T07:25:53;6.40;57.00
66928;DHT22;59882;45.624;11.698;2023-03-01T07:28:19;6.40;56.50
66928;DHT22;59882;45.624;11.698;2023-03-01T07:30:45;6.60;56.60
66928;DHT22;59882;45.624;11.698;2023-03-01T07:33:10;6.60;56.20
66928;DHT22;59882;45.624;11.698;2023-03-01T07:35:36;6.60;56.10
66928;DHT22;59882;45.624;11.698;2023-03-01T07:38:02;6.70;56.30
66928;DHT22;59882;45.624;11.698;2023-03-01T07:40:27;6.70;56.40
66928;DHT22;59882;45.624;11.698;2023-03-01T07:42:57;6.80;56.60
66928;DHT22;59882;45.624;11.698;2023-03-01T07:45:27;6.80;57.00
66928;DHT22;59882;45.624;11.698;2023-03-01T07:47:53;6.90;56.90
66928;DHT22;59882;45.624;11.698;2023-03-01T07:50:19;7.00;56.70
66928;DHT22;59882;45.624;11.698;2023-03-01T07:52:49;7.10;56.80
66928;DHT22;59882;45.624;11.698;2023-03-01T07:55:16;7.10;56.80
66928;DHT22;59882;45.624;11.698;2023-03-01T07:57:42;7.20;56.80
66928;DHT22;59882;45.624;11.698;2023-03-01T08:00:10;7.30;56.80
66928;DHT22;59882;45.624;11.698;2023-03-01T08:02:36;7.40;56.80
66928;DHT22;59882;45.624;11.698;2023-03-01T08:05:02;7.50;56.90
66928;DHT22;59882;45.624;11.698;2023-03-01T08:07:27;7.60;56.50
66928;DHT22;59882;45.624;11.698;2023-03-01T08:09:53;7.60;56.30
66928;DHT22;59882;45.624;11.698;2023-03-01T08:12:19;7.70;55.40
66928;DHT22;59882;45.624;11.698;2023-03-01T08:14:44;7.80;55.40
66928;DHT22;59882;45.624;11.698;2023-03-01T08:17:12;7.80;55.50
66928;DHT22;59882;45.624;11.698;2023-03-01T08:19:38;7.90;55.70
66928;DHT22;59882;45.624;11.698;2023-03-01T08:22:04;7.90;55.70
66928;DHT22;59882;45.624;11.698;2023-03-01T08:24:30;8.00;55.30
66928;DHT22;59882;45.624;11.698;2023-03-01T08:26:55;8.10;55.60
66928;DHT22;59882;45.624;11.698;2023-03-01T08:29:21;8.20;55.80
66928;DHT22;59882;45.624;11.698;2023-03-01T08:31:47;8.20;56.20
66928;DHT22;59882;45.624;11.698;2023-03-01T08:34:15;8.20;57.00
66928;DHT22;59882;45.624;11.698;2023-03-01T08:36:43;8.30;56.30
66928;DHT22;59882;45.624;11.698;2023-03-01T08:39:12;8.30;55.90
66928;DHT22;59882;45.624;11.698;2023-03-01T08:41:38;8.40;55.80
66928;DHT22;59882;45.624;11.698;2023-03-01T08:44:05;8.50;55.40
66928;DHT22;59882;45.624;11.698;2023-03-01T08:46:33;8.50;54.60
66928;DHT22;59882;45.624;11.698;2023-03-01T08:48:59;8.60;54.80
66928;DHT22;59882;45.624;11.698;2023-03-01T08:51:25;8.60;54.40
66928;DHT22;59882;45.624;11.698;2023-03-01T08:53:51;8.70;54.00
66928;DHT22;59882;45.624;11.698;2023-03-01T08:56:18;8.70;54.00
66928;DHT22;59882;45.624;11.698;2023-03-01T08:58:45;8.70;54.30
66928;DHT22;59882;45.624;11.698;2023-03-01T09:01:13;8.80;54.30
66928;DHT22;59882;45.624;11.698;2023-03-01T09:03:40;8.80;54.20
66928;DHT22;59882;45.624;11.698;2023-03-01T09:06:07;8.90;53.90
66928;DHT22;59882;45.624;11.698;2023-03-01T09:08:45;9.00;53.70
66928;DHT22;59882;45.624;11.698;2023-03-01T09:11:14;9.00;53.50
66928;DHT22;59882;45.624;11.698;2023-03-01T09:13:41;9.00;53.70
66928;DHT22;59882;45.624;11.698;2023-03-01T09:16:07;9.10;53.60
66928;DHT22;59882;45.624;11.698;2023-03-01T09:18:34;9.20;53.80
66928;DHT22;59882;45.624;11.698;2023-03-01T09:21:14;9.30;53.10
66928;DHT22;59882;45.624;11.698;2023-03-01T09:23:43;9.40;52.90
66928;DHT22;59882;45.624;11.698;2023-03-01T09:26:14;9.60;50.30
66928;DHT22;59882;45.624;11.698;2023-03-01T09:28:42;9.60;51.00
66928;DHT22;59882;45.624;11.698;2023-03-01T09:31:09;9.80;50.70
66928;DHT22;59882;45.624;11.698;2023-03-01T09:33:35;9.90;50.70
66928;DHT22;59882;45.624;11.698;2023-03-01T09:36:02;10.00;49.80
66928;DHT22;59882;45.624;11.698;2023-03-01T09:38:29;10.10;49.90
66928;DHT22;59882;45.624;11.698;2023-03-01T09:40:55;10.20;49.40
66928;DHT22;59882;45.624;11.698;2023-03-01T09:45:59;10.30;48.10
66928;DHT22;59882;45.624;11.698;2023-03-01T09:48:27;10.30;48.40
66928;DHT22;59882;45.624;11.698;2023-03-01T09:50:56;10.40;48.60
66928;DHT22;59882;45.624;11.698;2023-03-01T09:53:27;10.40;48.60
66928;DHT22;59882;45.624;11.698;2023-03-01T09:56:25;10.50;48.20
66928;DHT22;59882;45.624;11.698;2023-03-01T10:02:01;10.60;48.00
66928;DHT22;59882;45.624;11.698;2023-03-01T10:07:32;10.80;48.00
66928;DHT22;59882;45.624;11.698;2023-03-01T10:10:06;10.90;47.80
66928;DHT22;59882;45.624;11.698;2023-03-01T10:12:39;11.00;47.70
66928;DHT22;59882;45.624;11.698;2023-03-01T10:17:36;11.30;46.90
66928;DHT22;59882;45.624;11.698;2023-03-01T10:20:19;11.30;47.40
66928;DHT22;59882;45.624;11.698;2023-03-01T10:22:45;11.40;47.20
66928;DHT22;59882;45.624;11.698;2023-03-01T10:30:41;11.80;46.60
66928;DHT22;59882;45.624;11.698;2023-03-01T10:33:32;11.90;46.90
66928;DHT22;59882;45.624;11.698;2023-03-01T10:35:58;12.00;44.50
66928;DHT22;59882;45.624;11.698;2023-03-01T10:38:24;12.10;45.30
66928;DHT22;59882;45.624;11.698;2023-03-01T10:43:17;12.10;45.50
66928;DHT22;59882;45.624;11.698;2023-03-01T10:45:43;12.20;45.50
66928;DHT22;59882;45.624;11.698;2023-03-01T10:48:24;12.20;45.20
66928;DHT22;59882;45.624;11.698;2023-03-01T10:51:06;12.20;45.10
66928;DHT22;59882;45.624;11.698;2023-03-01T10:53:40;12.30;44.70
66928;DHT22;59882;45.624;11.698;2023-03-01T10:56:08;12.30;44.80
66928;DHT22;59882;45.624;11.698;2023-03-01T10:58:37;12.30;44.90
66928;DHT22;59882;45.624;11.698;2023-03-01T11:03:40;12.20;45.10
66928;DHT22;59882;45.624;11.698;2023-03-01T11:11:33;11.90;45.80
66928;DHT22;59882;45.624;11.698;2023-03-01T11:16:45;11.80;46.70
66928;DHT22;59882;45.624;11.698;2023-03-01T11:21:50;11.70;47.10
66928;DHT22;59882;45.624;11.698;2023-03-01T11:51:42;11.20;47.90
66928;DHT22;59882;45.624;11.698;2023-03-01T11:57:20;11.10;46.20
66928;DHT22;59882;45.624;11.698;2023-03-01T12:13:20;11.20;45.80
66928;DHT22;59882;45.624;11.698;2023-03-01T12:21:26;11.10;45.60
66928;DHT22;59882;45.624;11.698;2023-03-01T12:29:55;10.90;46.60
66928;DHT22;59882;45.624;11.698;2023-03-01T12:41:11;10.80;47.30
66928;DHT22;59882;45.624;11.698;2023-03-01T12:49:37;10.80;48.10
66928;DHT22;59882;45.624;11.698;2023-03-01T12:52:23;10.70;48.10
66928;DHT22;59882;45.624;11.698;2023-03-01T12:54:54;10.70;48.00
66928;DHT22;59882;45.624;11.698;2023-03-01T13:05:26;10.60;48.80
66928;DHT22;59882;45.624;11.698;2023-03-01T13:07:58;10.50;48.40
66928;DHT22;59882;45.624;11.698;2023-03-01T13:13:22;10.50;50.40
66928;DHT22;59882;45.624;11.698;2023-03-01T13:15:49;10.50;50.70
66928;DHT22;59882;45.624;11.698;2023-03-01T13:31:04;10.10;58.80
66928;DHT22;59882;45.624;11.698;2023-03-01T13:35:56;9.90;59.40
66928;DHT22;59882;45.624;11.698;2023-03-01T13:38:45;9.90;60.90
66928;DHT22;59882;45.624;11.698;2023-03-01T13:41:47;9.70;62.10
66928;DHT22;59882;45.624;11.698;2023-03-01T13:44:13;9.60;64.00
66928;DHT22;59882;45.624;11.698;2023-03-01T13:46:46;9.50;64.00
66928;DHT22;59882;45.624;11.698;2023-03-01T13:49:20;9.40;63.80
66928;DHT22;59882;45.624;11.698;2023-03-01T13:51:51;9.40;64.70
66928;DHT22;59882;45.624;11.698;2023-03-01T13:54:26;9.30;65.00
66928;DHT22;59882;45.624;11.698;2023-03-01T13:56:54;9.30;65.60
66928;DHT22;59882;45.624;11.698;2023-03-01T13:59:22;9.30;66.10
66928;DHT22;59882;45.624;11.698;2023-03-01T14:01:57;9.20;65.20
66928;DHT22;59882;45.624;11.698;2023-03-01T14:04:29;9.20;66.10
66928;DHT22;59882;45.624;11.698;2023-03-01T14:07:32;9.20;65.20
66928;DHT22;59882;45.624;11.698;2023-03-01T14:10:01;9.20;64.30
66928;DHT22;59882;45.624;11.698;2023-03-01T14:12:42;9.20;64.10
66928;DHT22;59882;45.624;11.698;2023-03-01T14:15:19;9.30;64.20
66928;DHT22;59882;45.624;11.698;2023-03-01T14:20:45;9.30;63.80
66928;DHT22;59882;45.624;11.698;2023-03-01T14:23:20;9.40;65.00
66928;DHT22;59882;45.624;11.698;2023-03-01T14:25:48;9.40;65.00
66928;DHT22;59882;45.624;11.698;2023-03-01T14:28:27;9.50;64.20
66928;DHT22;59882;45.624;11.698;2023-03-01T14:30:58;9.50;64.40
66928;DHT22;59882;45.624;11.698;2023-03-01T14:33:34;9.50;63.90
66928;DHT22;59882;45.624;11.698;2023-03-01T14:36:07;9.60;65.20
66928;DHT22;59882;45.624;11.698;2023-03-01T14:38:41;9.60;64.70
66928;DHT22;59882;45.624;11.698;2023-03-01T14:41:14;9.60;64.60
66928;DHT22;59882;45.624;11.698;2023-03-01T14:44:02;9.70;64.80
66928;DHT22;59882;45.624;11.698;2023-03-01T14:46:43;9.70;64.60
66928;DHT22;59882;45.624;11.698;2023-03-01T14:49:10;9.80;65.00
66928;DHT22;59882;45.624;11.698;2023-03-01T14:51:38;9.70;63.90
66928;DHT22;59882;45.624;11.698;2023-03-01T14:54:29;9.70;63.60
66928;DHT22;59882;45.624;11.698;2023-03-01T14:57:00;9.70;63.50
66928;DHT22;59882;45.624;11.698;2023-03-01T14:59:26;9.70;62.90
66928;DHT22;59882;45.624;11.698;2023-03-01T15:01:55;9.70;62.70
66928;DHT22;59882;45.624;11.698;2023-03-01T15:04:22;9.70;62.90
66928;DHT22;59882;45.624;11.698;2023-03-01T15:06:53;9.80;62.40
66928;DHT22;59882;45.624;11.698;2023-03-01T15:09:21;9.70;62.30
66928;DHT22;59882;45.624;11.698;2023-03-01T15:11:47;9.70;62.10
66928;DHT22;59882;45.624;11.698;2023-03-01T15:14:42;9.70;62.10
66928;DHT22;59882;45.624;11.698;2023-03-01T15:17:37;9.70;62.20
66928;DHT22;59882;45.624;11.698;2023-03-01T15:20:16;9.60;62.40
66928;DHT22;59882;45.624;11.698;2023-03-01T15:22:46;9.70;62.30
66928;DHT22;59882;45.624;11.698;2023-03-01T15:25:23;9.70;62.40
66928;DHT22;59882;45.624;11.698;2023-03-01T15:27:51;9.70;62.20
66928;DHT22;59882;45.624;11.698;2023-03-01T15:30:23;9.70;62.30
66928;DHT22;59882;45.624;11.698;2023-03-01T15:35:51;9.70;62.10
66928;DHT22;59882;45.624;11.698;2023-03-01T15:41:30;9.70;62.30
66928;DHT22;59882;45.624;11.698;2023-03-01T15:44:03;9.60;62.10
66928;DHT22;59882;45.624;11.698;2023-03-01T15:46:39;9.70;62.10
66928;DHT22;59882;45.624;11.698;2023-03-01T15:49:21;9.70;62.20
66928;DHT22;59882;45.624;11.698;2023-03-01T15:51:52;9.60;62.10
66928;DHT22;59882;45.624;11.698;2023-03-01T15:54:21;9.60;62.40
66928;DHT22;59882;45.624;11.698;2023-03-01T15:56:47;9.60;62.50
66928;DHT22;59882;45.624;11.698;2023-03-01T15:59:13;9.60;62.20
66928;DHT22;59882;45.624;11.698;2023-03-01T16:01:40;9.60;62.50
66928;DHT22;59882;45.624;11.698;2023-03-01T16:04:06;9.60;62.30
66928;DHT22;59882;45.624;11.698;2023-03-01T16:06:31;9.60;62.50
66928;DHT22;59882;45.624;11.698;2023-03-01T16:08:57;9.60;62.50
66928;DHT22;59882;45.624;11.698;2023-03-01T16:11:23;9.60;62.50
66928;DHT22;59882;45.624;11.698;2023-03-01T16:13:48;9.60;63.10
66928;DHT22;59882;45.624;11.698;2023-03-01T16:16:15;9.50;62.80
66928;DHT22;59882;45.624;11.698;2023-03-01T16:18:46;9.50;63.10
66928;DHT22;59882;45.624;11.698;2023-03-01T16:21:18;9.50;62.60
66928;DHT22;59882;45.624;11.698;2023-03-01T16:23:45;9.50;62.40
66928;DHT22;59882;45.624;11.698;2023-03-01T16:26:11;9.50;62.40
66928;DHT22;59882;45.624;11.698;2023-03-01T16:28:39;9.40;62.70
66928;DHT22;59882;45.624;11.698;2023-03-01T16:31:05;9.40;64.00
66928;DHT22;59882;45.624;11.698;2023-03-01T17:18:45;8.80;71.30
66928;DHT22;59882;45.624;11.698;2023-03-01T17:21:12;8.50;73.00
66928;DHT22;59882;45.624;11.698;2023-03-01T17:23:39;8.50;72.60
66928;DHT22;59882;45.624;11.698;2023-03-01T17:26:06;8.50;72.70
66928;DHT22;59882;45.624;11.698;2023-03-01T17:28:33;8.50;73.60
66928;DHT22;59882;45.624;11.698;2023-03-01T17:31:02;8.50;73.20
66928;DHT22;59882;45.624;11.698;2023-03-01T17:33:28;8.60;73.10
66928;DHT22;59882;45.624;11.698;2023-03-01T17:35:57;8.60;73.60
66928;DHT22;59882;45.624;11.698;2023-03-01T17:38:23;8.60;73.80
66928;DHT22;59882;45.624;11.698;2023-03-01T17:40:48;8.60;73.80
66928;DHT22;59882;45.624;11.698;2023-03-01T17:43:15;8.50;75.40
66928;DHT22;59882;45.624;11.698;2023-03-01T17:45:42;8.50;74.30
66928;DHT22;59882;45.624;11.698;2023-03-01T17:48:12;8.50;74.70
66928;DHT22;59882;45.624;11.698;2023-03-01T17:50:38;8.50;74.30
66928;DHT22;59882;45.624;11.698;2023-03-01T17:53:05;8.40;74.50
66928;DHT22;59882;45.624;11.698;2023-03-01T17:55:35;8.40;74.30
66928;DHT22;59882;45.624;11.698;2023-03-01T17:58:01;8.40;74.30
66928;DHT22;59882;45.624;11.698;2023-03-01T18:00:27;8.40;75.30
66928;DHT22;59882;45.624;11.698;2023-03-01T18:02:53;8.40;75.80
66928;DHT22;59882;45.624;11.698;2023-03-01T18:05:19;8.40;75.60
66928;DHT22;59882;45.624;11.698;2023-03-01T18:07:44;8.40;75.40
66928;DHT22;59882;45.624;11.698;2023-03-01T18:10:10;8.30;74.90
66928;DHT22;59882;45.624;11.698;2023-03-01T18:12:36;8.40;75.20
66928;DHT22;59882;45.624;11.698;2023-03-01T18:15:03;8.30;75.90
66928;DHT22;59882;45.624;11.698;2023-03-01T18:17:29;8.30;75.40
66928;DHT22;59882;45.624;11.698;2023-03-01T18:19:55;8.30;75.80
66928;DHT22;59882;45.624;11.698;2023-03-01T18:22:21;8.30;76.30
66928;DHT22;59882;45.624;11.698;2023-03-01T18:24:47;8.30;76.10
66928;DHT22;59882;45.624;11.698;2023-03-01T18:27:13;8.20;75.60
66928;DHT22;59882;45.624;11.698;2023-03-01T18:29:39;8.20;76.00
66928;DHT22;59882;45.624;11.698;2023-03-01T18:32:05;8.20;76.20
66928;DHT22;59882;45.624;11.698;2023-03-01T18:34:31;8.20;76.00
66928;DHT22;59882;45.624;11.698;2023-03-01T18:36:57;8.20;75.90
66928;DHT22;59882;45.624;11.698;2023-03-01T18:39:23;8.10;76.10
66928;DHT22;59882;45.624;11.698;2023-03-01T18:41:49;8.00;76.70
66928;DHT22;59882;45.624;11.698;2023-03-01T18:44:15;8.10;76.50
66928;DHT22;59882;45.624;11.698;2023-03-01T18:46:41;8.00;77.50
66928;DHT22;59882;45.624;11.698;2023-03-01T18:49:11;8.00;76.90
66928;DHT22;59882;45.624;11.698;2023-03-01T18:51:38;7.90;77.60
66928;DHT22;59882;45.624;11.698;2023-03-01T18:54:05;7.90;78.50
66928;DHT22;59882;45.624;11.698;2023-03-01T18:56:31;7.90;78.40
66928;DHT22;59882;45.624;11.698;2023-03-01T18:58:57;7.90;78.00
66928;DHT22;59882;45.624;11.698;2023-03-01T19:01:26;7.90;78.20